Time;durP1;ratioP1;P1;durP2;ratioP2;P2;SDS_P1;SDS_P2;PMS_P1;PMS_P2;Temp;Humidity;BMP_temperature;BMP_pressure;BME280_temperature;BME280_humidity;BME280_pressure;Samples;Min_cycle;Max_cycle;Signal;HPM_P1;HPM_P2
2022/03/25 00:00:39;;;;;;;51.13;32.45;;;;;;;;;;5006918;28;100054;-72
2022/03/25 00:03:06;;;;;;;46.50;31.88;;;;;;;;;;5006685;28;99055;-73
2022/03/25 00:05:32;;;;;;;47.60;32.88;;;;;;;;;;5005592;28;98541;-72
2022/03/25 00:07:59;;;;;;;53.33;32.97;;;;;;;;;;5008035;28;99101;-72
2022/03/25 00:10:26;;;;;;;47.90;35.00;;;;;;;;;;5008770;28;99584;-72
2022/03/25 00:12:53;;;;;;;55.78;35.67;;;;;;;;;;5014446;28;98547;-73
2022/03/25 00:15:19;;;;;;;52.83;34.35;;;;;;;;;;5010662;28;99718;-72
2022/03/25 00:17:46;;;;;;;62.53;36.53;;;;;;;;;;5010132;28;99305;-72
2022/03/25 00:20:12;;;;;;;55.08;37.85;;;;;;;;;;5010927;28;100130;-72
2022/03/25 00:22:39;;;;;;;49.83;36.13;;;;;;;;;;5009006;28;99837;-72
2022/03/25 00:25:05;;;;;;;58.08;38.55;;;;;;;;;;5008642;28;99948;-72
2022/03/25 00:27:32;;;;;;;49.55;36.85;;;;;;;;;;5008819;28;100035;-72
2022/03/25 00:29:59;;;;;;;57.40;36.83;;;;;;;;;;5008727;28;100324;-72
2022/03/25 00:32:25;;;;;;;57.38;39.92;;;;;;;;;;5016080;27;99168;-72
2022/03/25 00:34:52;;;;;;;57.80;37.08;;;;;;;;;;5013148;28;99170;-72
2022/03/25 00:37:18;;;;;;;57.53;39.10;;;;;;;;;;5023423;27;99037;-72
2022/03/25 00:39:44;;;;;;;63.53;41.30;;;;;;;;;;5008510;28;99074;-72
2022/03/25 00:42:13;;;;;;;64.30;41.28;;;;;;;;;;5008715;28;100825;-72
2022/03/25 00:44:40;;;;;;;65.00;42.63;;;;;;;;;;5008893;28;99174;-73
2022/03/25 00:47:07;;;;;;;59.33;40.90;;;;;;;;;;5008524;28;100033;-73
2022/03/25 00:49:33;;;;;;;66.78;43.65;;;;;;;;;;5008044;28;100774;-73
2022/03/25 00:52:00;;;;;;;64.65;43.25;;;;;;;;;;5009325;28;100156;-72
2022/03/25 00:54:27;;;;;;;59.45;41.90;;;;;;;;;;5011516;28;99307;-72
2022/03/25 00:56:53;;;;;;;62.75;43.58;;;;;;;;;;5008244;28;98708;-72
2022/03/25 00:59:20;;;;;;;68.00;44.35;;;;;;;;;;5007543;28;100580;-72
2022/03/25 01:01:46;;;;;;;63.47;42.45;;;;;;;;;;5010051;28;99182;-72
2022/03/25 01:04:13;;;;;;;72.18;45.17;;;;;;;;;;5002799;28;98634;-72
2022/03/25 01:06:40;;;;;;;75.57;47.35;;;;;;;;;;5006711;28;100463;-72
2022/03/25 01:09:06;;;;;;;69.68;45.92;;;;;;;;;;5023791;28;101321;-72
2022/03/25 01:11:35;;;;;;;78.47;46.72;;;;;;;;;;5007944;28;98672;-72
2022/03/25 01:14:02;;;;;;;66.70;45.95;;;;;;;;;;5009333;28;100276;-72
2022/03/25 01:16:29;;;;;;;71.28;47.65;;;;;;;;;;5026882;28;99355;-72
2022/03/25 01:18:55;;;;;;;69.90;47.72;;;;;;;;;;5007849;28;100149;-72
2022/03/25 01:21:22;;;;;;;69.80;46.72;;;;;;;;;;5006975;28;100164;-72
2022/03/25 01:23:48;;;;;;;76.40;49.17;;;;;;;;;;5008903;28;98211;-72
2022/03/25 01:26:15;;;;;;;71.40;49.50;;;;;;;;;;5009632;28;98599;-72
2022/03/25 01:28:42;;;;;;;73.95;49.97;;;;;;;;;;5007900;28;101096;-72
2022/03/25 01:31:09;;;;;;;73.32;50.35;;;;;;;;;;5007469;28;99538;-72
2022/03/25 01:33:37;;;;;;;73.32;49.60;;;;;;;;;;5008625;28;99710;-72
2022/03/25 01:36:04;;;;;;;78.50;51.55;;;;;;;;;;5007045;28;100504;-72
2022/03/25 01:38:30;;;;;;;81.93;50.88;;;;;;;;;;5012373;28;98652;-72
2022/03/25 01:40:58;;;;;;;75.30;50.30;;;;;;;;;;5024567;28;101454;-72
2022/03/25 01:43:25;;;;;;;72.93;50.88;;;;;;;;;;5009249;28;98631;-72
2022/03/25 01:45:52;;;;;;;77.95;52.10;;;;;;;;;;5009817;28;99697;-72
2022/03/25 01:48:20;;;;;;;78.35;50.45;;;;;;;;;;5009497;28;99547;-72
2022/03/25 01:50:47;;;;;;;82.18;53.72;;;;;;;;;;5009752;28;98602;-72
2022/03/25 01:53:22;;;;;;;77.47;51.65;;;;;;;;;;5009361;28;100079;-72
2022/03/25 01:55:50;;;;;;;77.13;50.13;;;;;;;;;;5007682;28;99871;-72
2022/03/25 01:58:17;;;;;;;83.88;52.97;;;;;;;;;;5023744;28;98724;-72
2022/03/25 02:00:44;;;;;;;78.15;52.10;;;;;;;;;;5011053;28;100064;-72
2022/03/25 02:03:10;;;;;;;87.80;53.83;;;;;;;;;;5007733;28;99509;-72
2022/03/25 02:05:37;;;;;;;84.22;53.10;;;;;;;;;;5008201;28;100909;-72
2022/03/25 02:08:04;;;;;;;83.80;53.90;;;;;;;;;;5006963;28;101583;-72
2022/03/25 02:10:31;;;;;;;77.63;51.60;;;;;;;;;;5006168;28;99437;-72
2022/03/25 02:12:58;;;;;;;80.68;53.58;;;;;;;;;;5008341;28;99009;-72
2022/03/25 02:15:31;;;;;;;83.57;55.13;;;;;;;;;;5004251;28;101580;-72
2022/03/25 02:18:08;;;;;;;85.55;55.22;;;;;;;;;;5007048;28;98593;-72
2022/03/25 02:20:34;;;;;;;80.70;55.67;;;;;;;;;;5005290;28;99951;-72
2022/03/25 02:23:01;;;;;;;90.10;55.13;;;;;;;;;;5006580;28;100452;-72
2022/03/25 02:25:29;;;;;;;85.15;55.65;;;;;;;;;;5006561;28;101510;-72
2022/03/25 02:28:00;;;;;;;85.30;54.88;;;;;;;;;;4994264;28;101738;-72
2022/03/25 02:30:29;;;;;;;91.63;57.65;;;;;;;;;;4997455;28;98712;-72
2022/03/25 02:33:00;;;;;;;87.22;56.05;;;;;;;;;;5008479;28;98959;-72
2022/03/25 02:35:40;;;;;;;89.57;57.00;;;;;;;;;;5006626;28;101993;-72
2022/03/25 02:38:07;;;;;;;89.15;58.20;;;;;;;;;;5023244;28;98179;-72
2022/03/25 02:40:34;;;;;;;91.82;58.88;;;;;;;;;;5023715;27;98910;-72
2022/03/25 02:43:00;;;;;;;99.45;59.72;;;;;;;;;;4992276;28;100604;-72
2022/03/25 02:45:27;;;;;;;92.15;59.83;;;;;;;;;;5025744;28;99404;-72
2022/03/25 02:47:53;;;;;;;90.05;59.53;;;;;;;;;;5022822;28;101624;-72
2022/03/25 02:50:21;;;;;;;97.88;59.72;;;;;;;;;;5004549;28;100067;-72
2022/03/25 02:52:47;;;;;;;92.03;60.55;;;;;;;;;;5008790;28;100286;-72
2022/03/25 02:55:13;;;;;;;93.15;60.10;;;;;;;;;;5007142;28;100314;-72
2022/03/25 02:57:40;;;;;;;95.28;61.13;;;;;;;;;;5007126;28;98588;-72
2022/03/25 03:00:08;;;;;;;93.18;61.63;;;;;;;;;;5007792;28;99511;-72
2022/03/25 03:02:35;;;;;;;103.32;62.88;;;;;;;;;;5008013;28;98641;-72
2022/03/25 03:05:02;;;;;;;106.25;62.97;;;;;;;;;;5010356;28;99646;-72
2022/03/25 03:07:29;;;;;;;87.25;60.13;;;;;;;;;;5004532;28;99391;-72
2022/03/25 03:09:55;;;;;;;108.25;63.75;;;;;;;;;;5008300;28;99683;-72
2022/03/25 03:12:22;;;;;;;95.50;63.38;;;;;;;;;;5007156;28;100064;-72
2022/03/25 03:14:48;;;;;;;103.97;64.78;;;;;;;;;;5007351;28;100417;-72
2022/03/25 03:17:15;;;;;;;104.38;64.78;;;;;;;;;;5007617;28;98754;-72
2022/03/25 03:19:41;;;;;;;102.15;65.18;;;;;;;;;;5007562;28;100062;-72
2022/03/25 03:22:08;;;;;;;106.07;64.90;;;;;;;;;;5007599;28;99494;-72
2022/03/25 03:24:34;;;;;;;103.65;64.13;;;;;;;;;;5007009;28;98758;-72
2022/03/25 03:27:00;;;;;;;113.55;63.15;;;;;;;;;;5010614;28;99022;-71
2022/03/25 03:29:27;;;;;;;108.18;65.22;;;;;;;;;;5008377;28;98499;-72
2022/03/25 03:31:53;;;;;;;105.85;65.30;;;;;;;;;;5007315;28;100008;-72
2022/03/25 03:34:20;;;;;;;107.10;66.13;;;;;;;;;;5006072;28;100652;-72
2022/03/25 03:36:46;;;;;;;106.45;66.18;;;;;;;;;;5007811;28;100221;-72
2022/03/25 03:39:13;;;;;;;107.38;66.45;;;;;;;;;;5006998;28;99167;-72
2022/03/25 03:41:39;;;;;;;103.13;65.40;;;;;;;;;;5005986;28;99993;-72
2022/03/25 03:44:06;;;;;;;100.43;64.93;;;;;;;;;;5006708;28;98671;-72
2022/03/25 03:46:33;;;;;;;106.40;64.32;;;;;;;;;;5006829;28;100117;-72
2022/03/25 03:49:00;;;;;;;106.47;65.10;;;;;;;;;;5010343;28;99177;-72
2022/03/25 03:51:26;;;;;;;109.28;65.30;;;;;;;;;;5008006;28;99266;-72
2022/03/25 03:53:53;;;;;;;115.93;67.45;;;;;;;;;;5005915;28;99300;-72
2022/03/25 03:56:19;;;;;;;115.82;67.55;;;;;;;;;;5007391;28;99353;-72
2022/03/25 03:58:45;;;;;;;105.35;64.20;;;;;;;;;;5006642;28;99971;-72
2022/03/25 04:01:12;;;;;;;107.75;65.72;;;;;;;;;;5006781;28;99914;-72
2022/03/25 04:03:38;;;;;;;115.22;68.85;;;;;;;;;;5007171;28;98542;-72
2022/03/25 04:06:05;;;;;;;113.57;70.88;;;;;;;;;;5006053;28;99943;-72
2022/03/25 04:08:31;;;;;;;124.57;67.03;;;;;;;;;;5005450;28;99439;-72
2022/03/25 04:10:58;;;;;;;120.03;70.53;;;;;;;;;;5011211;28;98518;-72
2022/03/25 04:13:24;;;;;;;112.72;68.32;;;;;;;;;;5006532;28;100114;-71
2022/03/25 04:15:51;;;;;;;114.65;69.65;;;;;;;;;;5007000;28;100237;-72
2022/03/25 04:18:17;;;;;;;117.78;66.65;;;;;;;;;;5007387;28;99298;-72
2022/03/25 04:20:43;;;;;;;114.75;68.25;;;;;;;;;;5006774;28;100232;-72
2022/03/25 04:23:10;;;;;;;120.10;70.68;;;;;;;;;;5006135;28;99311;-71
2022/03/25 04:25:36;;;;;;;120.43;69.68;;;;;;;;;;5006875;28;99827;-72
2022/03/25 04:28:02;;;;;;;118.07;69.90;;;;;;;;;;5006836;28;99270;-72
2022/03/25 04:30:33;;;;;;;116.97;70.13;;;;;;;;;;5004587;28;100118;-72
2022/03/25 04:33:00;;;;;;;113.55;68.20;;;;;;;;;;5009366;28;100118;-72
2022/03/25 04:35:28;;;;;;;125.80;71.32;;;;;;;;;;5006688;28;98620;-71
2022/03/25 04:37:55;;;;;;;128.68;71.10;;;;;;;;;;5006583;28;99196;-72
2022/03/25 04:40:22;;;;;;;119.57;68.60;;;;;;;;;;5007429;28;98717;-72
2022/03/25 04:42:49;;;;;;;115.30;70.80;;;;;;;;;;5006523;28;98509;-72
2022/03/25 04:45:16;;;;;;;120.63;69.00;;;;;;;;;;5006015;28;100035;-72
2022/03/25 04:47:42;;;;;;;113.57;71.18;;;;;;;;;;5005029;28;100971;-72
2022/03/25 04:50:09;;;;;;;111.05;69.55;;;;;;;;;;5003060;28;99549;-72
2022/03/25 04:52:36;;;;;;;120.07;70.22;;;;;;;;;;5006817;28;100030;-72
2022/03/25 04:55:03;;;;;;;119.80;70.15;;;;;;;;;;5010095;28;100324;-72
2022/03/25 04:57:29;;;;;;;121.15;72.80;;;;;;;;;;5008118;28;99282;-72
2022/03/25 04:59:55;;;;;;;118.05;71.32;;;;;;;;;;5010567;28;99840;-72
2022/03/25 05:02:22;;;;;;;124.47;70.75;;;;;;;;;;5009322;27;98653;-72
2022/03/25 05:04:49;;;;;;;122.07;70.40;;;;;;;;;;5010714;28;100053;-72
2022/03/25 05:07:16;;;;;;;116.55;70.45;;;;;;;;;;5008963;28;99958;-72
2022/03/25 05:09:42;;;;;;;123.70;70.68;;;;;;;;;;5008650;28;98568;-72
2022/03/25 05:12:09;;;;;;;123.00;70.97;;;;;;;;;;5009393;28;100140;-72
2022/03/25 05:14:36;;;;;;;122.45;69.78;;;;;;;;;;5012512;28;100218;-72
2022/03/25 05:17:03;;;;;;;122.30;69.07;;;;;;;;;;5007769;28;99691;-72
2022/03/25 05:19:29;;;;;;;127.10;70.05;;;;;;;;;;5007919;28;100284;-72
2022/03/25 05:21:55;;;;;;;133.25;68.70;;;;;;;;;;5008957;28;98701;-72
2022/03/25 05:24:22;;;;;;;119.03;69.28;;;;;;;;;;5011886;28;100203;-72
2022/03/25 05:26:49;;;;;;;128.63;71.28;;;;;;;;;;5004862;28;99548;-72
2022/03/25 05:29:15;;;;;;;118.32;70.40;;;;;;;;;;5010608;28;98363;-72
2022/03/25 05:31:42;;;;;;;123.13;70.40;;;;;;;;;;5008901;28;99311;-72
2022/03/25 05:34:09;;;;;;;118.53;69.60;;;;;;;;;;5009213;28;100096;-72
2022/03/25 05:36:36;;;;;;;111.95;68.03;;;;;;;;;;5012293;28;99388;-72
2022/03/25 05:39:02;;;;;;;120.43;68.85;;;;;;;;;;5009536;28;99492;-72
2022/03/25 05:41:29;;;;;;;133.40;69.40;;;;;;;;;;5007854;28;100221;-72
2022/03/25 05:43:55;;;;;;;127.07;73.18;;;;;;;;;;5009043;28;99902;-72
2022/03/25 05:46:22;;;;;;;130.63;71.28;;;;;;;;;;5007265;28;99556;-72
2022/03/25 05:48:48;;;;;;;133.95;75.25;;;;;;;;;;5009268;28;98656;-72
2022/03/25 05:51:15;;;;;;;127.45;70.97;;;;;;;;;;5009716;28;100108;-72
2022/03/25 05:53:41;;;;;;;128.65;73.18;;;;;;;;;;5009509;28;98939;-72
2022/03/25 05:56:08;;;;;;;128.48;70.90;;;;;;;;;;5009762;27;99625;-72
2022/03/25 05:58:35;;;;;;;123.13;71.38;;;;;;;;;;5012171;28;100026;-72
2022/03/25 06:01:01;;;;;;;126.80;71.75;;;;;;;;;;5008357;28;99307;-72
2022/03/25 06:03:28;;;;;;;123.22;72.00;;;;;;;;;;5008452;28;101048;-72
2022/03/25 06:05:54;;;;;;;120.30;71.65;;;;;;;;;;5007936;28;100164;-72
2022/03/25 06:08:23;;;;;;;121.35;71.32;;;;;;;;;;5007967;28;98995;-72
2022/03/25 06:10:49;;;;;;;123.43;70.97;;;;;;;;;;5009567;28;100163;-72
2022/03/25 06:13:16;;;;;;;114.68;67.72;;;;;;;;;;5006776;28;100167;-72
2022/03/25 06:15:44;;;;;;;121.85;71.40;;;;;;;;;;5007253;28;99111;-72
2022/03/25 06:18:10;;;;;;;115.97;68.38;;;;;;;;;;5009128;28;100716;-72
2022/03/25 06:20:36;;;;;;;125.47;73.88;;;;;;;;;;5010176;28;100774;-72
2022/03/25 06:23:03;;;;;;;117.60;71.25;;;;;;;;;;5008590;28;99921;-72
2022/03/25 06:25:29;;;;;;;122.68;72.13;;;;;;;;;;5006530;28;100101;-73
2022/03/25 06:27:57;;;;;;;125.00;73.55;;;;;;;;;;5007963;28;98555;-72
2022/03/25 06:30:26;;;;;;;122.65;72.25;;;;;;;;;;5006675;28;100065;-72
2022/03/25 06:32:53;;;;;;;128.30;73.35;;;;;;;;;;5008115;28;100469;-72
2022/03/25 06:35:19;;;;;;;116.57;70.90;;;;;;;;;;5007618;28;100031;-72
2022/03/25 06:37:46;;;;;;;118.35;72.45;;;;;;;;;;5008487;28;99226;-72
2022/03/25 06:40:13;;;;;;;127.32;74.63;;;;;;;;;;5008028;28;100251;-72
2022/03/25 06:42:40;;;;;;;127.57;73.97;;;;;;;;;;5011381;28;97915;-72
2022/03/25 06:45:08;;;;;;;120.78;73.90;;;;;;;;;;5008796;28;100300;-72
2022/03/25 06:47:34;;;;;;;121.65;71.10;;;;;;;;;;5007307;28;100570;-72
2022/03/25 06:50:02;;;;;;;120.38;73.18;;;;;;;;;;5007340;28;99272;-72
2022/03/25 06:52:29;;;;;;;118.18;73.03;;;;;;;;;;5008148;28;100325;-72
2022/03/25 06:54:55;;;;;;;113.72;69.32;;;;;;;;;;5008851;28;99083;-72
2022/03/25 06:57:21;;;;;;;121.88;73.18;;;;;;;;;;5006988;28;100085;-72
2022/03/25 06:59:48;;;;;;;110.60;71.45;;;;;;;;;;5007470;28;99939;-71
2022/03/25 07:02:15;;;;;;;124.13;72.95;;;;;;;;;;5008733;27;99044;-72
2022/03/25 07:04:42;;;;;;;107.20;66.45;;;;;;;;;;5011600;28;99415;-72
2022/03/25 07:07:09;;;;;;;116.25;71.30;;;;;;;;;;5008342;28;98253;-72
2022/03/25 07:09:35;;;;;;;116.60;71.13;;;;;;;;;;5008921;28;99284;-72
2022/03/25 07:12:02;;;;;;;111.07;68.80;;;;;;;;;;5007815;28;100289;-72
2022/03/25 07:14:29;;;;;;;94.55;57.53;;;;;;;;;;5007405;28;99739;-71
2022/03/25 07:16:55;;;;;;;114.20;71.97;;;;;;;;;;5007331;28;99759;-72
2022/03/25 07:19:25;;;;;;;119.82;73.88;;;;;;;;;;5000266;28;99565;-72
2022/03/25 07:21:54;;;;;;;112.32;68.18;;;;;;;;;;4988519;28;98610;-72
2022/03/25 07:24:23;;;;;;;114.45;70.03;;;;;;;;;;4995732;28;99375;-71
2022/03/25 07:26:50;;;;;;;111.75;67.20;;;;;;;;;;5005134;28;98615;-71
2022/03/25 07:29:16;;;;;;;108.50;71.50;;;;;;;;;;5006800;28;100287;-71
2022/03/25 07:31:43;;;;;;;109.38;70.38;;;;;;;;;;5004209;28;99400;-71
2022/03/25 07:34:09;;;;;;;110.88;70.55;;;;;;;;;;5006819;28;98997;-71
2022/03/25 07:36:36;;;;;;;114.68;72.10;;;;;;;;;;5001228;28;99201;-71
2022/03/25 07:39:02;;;;;;;97.72;65.18;;;;;;;;;;5004194;28;100820;-72
2022/03/25 07:41:29;;;;;;;105.50;68.47;;;;;;;;;;5019086;28;99969;-71
2022/03/25 07:43:55;;;;;;;99.97;61.50;;;;;;;;;;5022090;28;100899;-72
2022/03/25 07:46:23;;;;;;;109.53;66.63;;;;;;;;;;5009575;28;100244;-71
2022/03/25 07:48:50;;;;;;;100.53;68.22;;;;;;;;;;5006851;28;101096;-72
2022/03/25 07:51:17;;;;;;;105.95;68.00;;;;;;;;;;5006708;28;99657;-72
2022/03/25 07:53:43;;;;;;;98.95;65.72;;;;;;;;;;5005807;28;98571;-72
2022/03/25 07:56:11;;;;;;;110.45;69.82;;;;;;;;;;5007294;28;100119;-72
2022/03/25 07:58:37;;;;;;;99.10;63.03;;;;;;;;;;5001754;28;100356;-72
2022/03/25 08:01:04;;;;;;;105.30;61.83;;;;;;;;;;5003490;28;98592;-72
2022/03/25 08:03:30;;;;;;;85.18;55.10;;;;;;;;;;5001108;28;101286;-72
2022/03/25 08:05:57;;;;;;;100.60;62.63;;;;;;;;;;5005285;27;99793;-72
2022/03/25 08:08:29;;;;;;;99.47;64.10;;;;;;;;;;5000943;28;98854;-72
2022/03/25 08:10:56;;;;;;;103.95;68.35;;;;;;;;;;5003626;28;99432;-72
2022/03/25 08:13:23;;;;;;;95.60;61.50;;;;;;;;;;4999761;28;98570;-73
2022/03/25 08:15:49;;;;;;;100.10;64.75;;;;;;;;;;5006390;28;100053;-72
2022/03/25 08:18:16;;;;;;;96.93;66.68;;;;;;;;;;5007517;28;99244;-72
2022/03/25 08:20:47;;;;;;;93.97;64.68;;;;;;;;;;5006948;28;98329;-72
2022/03/25 08:27:48;;;;;;;94.30;64.18;;;;;;;;;;5007524;28;99415;-72
2022/03/25 08:28:46;;;;;;;90.05;64.35;;;;;;;;;;5006620;28;99873;-72
2022/03/25 08:31:34;;;;;;;95.03;60.92;;;;;;;;;;5014380;28;99835;-72
2022/03/25 08:34:02;;;;;;;83.72;60.45;;;;;;;;;;5009990;28;98664;-72
2022/03/25 08:36:28;;;;;;;81.20;57.40;;;;;;;;;;5009409;28;100075;-71
2022/03/25 08:38:55;;;;;;;87.40;60.05;;;;;;;;;;5010486;28;99771;-72
2022/03/25 08:41:21;;;;;;;91.90;56.83;;;;;;;;;;4999406;28;98939;-72
2022/03/25 08:43:48;;;;;;;83.97;59.22;;;;;;;;;;5002953;28;99119;-72
2022/03/25 08:46:14;;;;;;;83.55;50.00;;;;;;;;;;5010486;28;99608;-71
2022/03/25 08:48:40;;;;;;;78.40;51.67;;;;;;;;;;5009735;28;98761;-71
2022/03/25 08:51:07;;;;;;;77.00;49.42;;;;;;;;;;5010283;28;100418;-71
2022/03/25 08:53:34;;;;;;;85.63;53.05;;;;;;;;;;5011147;28;99995;-70
2022/03/25 08:56:00;;;;;;;73.78;52.50;;;;;;;;;;5009206;28;100860;-72
2022/03/25 08:58:27;;;;;;;82.13;53.67;;;;;;;;;;5008166;28;100347;-72
2022/03/25 09:00:53;;;;;;;68.60;45.05;;;;;;;;;;5009724;28;98590;-72
2022/03/25 09:03:20;;;;;;;66.20;46.42;;;;;;;;;;5008145;28;99057;-72
2022/03/25 09:05:47;;;;;;;69.80;48.65;;;;;;;;;;5005452;28;100963;-72
2022/03/25 09:08:13;;;;;;;72.32;48.45;;;;;;;;;;5007407;28;100252;-72
2022/03/25 09:10:39;;;;;;;72.70;50.35;;;;;;;;;;5009303;28;99049;-72
2022/03/25 09:13:06;;;;;;;69.38;48.75;;;;;;;;;;5003533;28;100277;-72
2022/03/25 09:15:33;;;;;;;62.97;40.13;;;;;;;;;;5011429;28;98524;-72
2022/03/25 09:18:00;;;;;;;54.28;38.13;;;;;;;;;;5001818;28;100711;-72
2022/03/25 09:20:32;;;;;;;65.80;44.93;;;;;;;;;;5009052;28;98671;-72
2022/03/25 09:22:58;;;;;;;66.78;45.45;;;;;;;;;;5005451;28;99296;-72
2022/03/25 09:25:25;;;;;;;65.30;46.30;;;;;;;;;;5008250;28;101482;-72
2022/03/25 09:27:52;;;;;;;60.90;37.75;;;;;;;;;;5008107;28;98575;-72
2022/03/25 09:30:23;;;;;;;72.30;45.53;;;;;;;;;;5008138;28;99985;-72
2022/03/25 09:33:00;;;;;;;61.90;41.08;;;;;;;;;;5007858;28;99744;-72
2022/03/25 09:35:33;;;;;;;53.23;35.83;;;;;;;;;;5012855;28;97819;-72
2022/03/25 09:37:59;;;;;;;52.72;35.92;;;;;;;;;;5010258;28;99552;-72
2022/03/25 09:40:26;;;;;;;56.58;35.78;;;;;;;;;;5004535;28;99327;-72
2022/03/25 09:42:55;;;;;;;49.15;31.98;;;;;;;;;;5009126;28;100016;-72
2022/03/25 09:45:22;;;;;;;53.08;35.53;;;;;;;;;;5008475;28;99368;-72
2022/03/25 09:47:49;;;;;;;52.63;37.78;;;;;;;;;;5003090;28;98873;-72
2022/03/25 09:50:21;;;;;;;53.50;38.60;;;;;;;;;;5011531;28;100002;-72
2022/03/25 09:52:48;;;;;;;53.83;38.33;;;;;;;;;;5000033;28;100278;-72
2022/03/25 09:55:33;;;;;;;61.20;37.08;;;;;;;;;;5009668;28;98571;-72
2022/03/25 09:58:00;;;;;;;56.25;36.88;;;;;;;;;;5010502;28;99162;-72
2022/03/25 10:00:27;;;;;;;60.75;36.50;;;;;;;;;;5008720;28;98313;-72
2022/03/25 10:02:53;;;;;;;66.70;41.55;;;;;;;;;;5009151;28;98627;-71
2022/03/25 10:05:21;;;;;;;62.50;41.92;;;;;;;;;;5007427;28;100124;-72
2022/03/25 10:07:48;;;;;;;53.75;37.53;;;;;;;;;;5007484;28;99313;-72
2022/03/25 10:10:18;;;;;;;65.75;42.90;;;;;;;;;;5008039;28;99972;-72
2022/03/25 10:12:46;;;;;;;65.45;42.67;;;;;;;;;;5009279;28;99657;-71
2022/03/25 10:15:25;;;;;;;64.38;38.55;;;;;;;;;;5005901;28;99370;-72
2022/03/25 10:18:01;;;;;;;54.88;35.33;;;;;;;;;;5008774;28;99402;-72
2022/03/25 10:20:30;;;;;;;58.40;38.42;;;;;;;;;;5010652;28;99480;-71
2022/03/25 10:22:59;;;;;;;66.95;42.08;;;;;;;;;;5006057;28;100070;-72
2022/03/25 10:25:41;;;;;;;57.92;42.35;;;;;;;;;;5005547;28;98793;-72
2022/03/25 10:28:27;;;;;;;54.88;40.22;;;;;;;;;;5007857;28;98592;-72
2022/03/25 10:31:01;;;;;;;58.30;38.28;;;;;;;;;;5009049;28;99906;-72
2022/03/25 10:33:27;;;;;;;55.25;38.53;;;;;;;;;;5013782;28;101258;-71
2022/03/25 10:35:54;;;;;;;51.95;33.70;;;;;;;;;;5010102;28;99536;-71
2022/03/25 10:38:21;;;;;;;51.60;33.80;;;;;;;;;;5009641;28;98543;-72
2022/03/25 10:40:57;;;;;;;59.45;38.53;;;;;;;;;;5007133;28;99498;-71
2022/03/25 10:43:24;;;;;;;55.28;37.03;;;;;;;;;;5015821;28;99851;-71
2022/03/25 10:45:51;;;;;;;49.25;36.17;;;;;;;;;;5017091;28;99913;-72
2022/03/25 10:48:19;;;;;;;50.20;37.38;;;;;;;;;;5008294;28;98561;-71
2022/03/25 10:50:54;;;;;;;257.55;78.72;;;;;;;;;;5014603;28;99720;-72
2022/03/25 10:53:23;;;;;;;56.65;35.17;;;;;;;;;;5007488;27;99681;-72
2022/03/25 10:55:57;;;;;;;67.20;38.45;;;;;;;;;;5019277;27;98812;-71
2022/03/25 10:58:24;;;;;;;49.47;35.55;;;;;;;;;;5008174;28;99276;-71
2022/03/25 11:00:50;;;;;;;64.97;37.45;;;;;;;;;;5008389;27;99510;-71
2022/03/25 11:03:17;;;;;;;59.70;40.90;;;;;;;;;;4987997;28;99019;-72
2022/03/25 11:05:44;;;;;;;61.05;39.40;;;;;;;;;;5008321;28;100146;-72
2022/03/25 11:08:10;;;;;;;67.57;39.80;;;;;;;;;;5028380;27;98581;-72
2022/03/25 11:10:38;;;;;;;53.70;40.55;;;;;;;;;;5010562;27;100160;-72
2022/03/25 11:13:05;;;;;;;64.18;39.33;;;;;;;;;;5007149;28;99940;-73
2022/03/25 11:15:32;;;;;;;64.68;41.65;;;;;;;;;;5008052;28;99283;-72
2022/03/25 11:17:58;;;;;;;68.30;41.47;;;;;;;;;;5007481;28;98946;-72
2022/03/25 11:20:25;;;;;;;56.10;39.47;;;;;;;;;;5017383;28;99752;-77
2022/03/25 11:23:09;;;;;;;62.83;40.65;;;;;;;;;;5017000;27;99291;-73
2022/03/25 11:25:39;;;;;;;55.53;39.67;;;;;;;;;;5011108;28;100116;-73
2022/03/25 11:28:13;;;;;;;57.03;37.33;;;;;;;;;;5007549;28;98746;-73
2022/03/25 11:30:40;;;;;;;64.40;44.25;;;;;;;;;;5008039;28;99687;-77
2022/03/25 11:33:07;;;;;;;63.00;40.47;;;;;;;;;;5006700;28;100043;-78
2022/03/25 11:35:35;;;;;;;56.00;37.67;;;;;;;;;;5007178;28;98674;-73
2022/03/25 11:38:07;;;;;;;56.33;39.33;;;;;;;;;;5006917;27;98927;-75
2022/03/25 11:40:34;;;;;;;56.22;39.50;;;;;;;;;;5006949;28;100627;-74
2022/03/25 11:43:11;;;;;;;58.55;39.97;;;;;;;;;;5006462;28;98627;-76
2022/03/25 11:45:37;;;;;;;58.45;38.15;;;;;;;;;;5007010;28;99592;-74
2022/03/25 11:48:04;;;;;;;57.78;36.28;;;;;;;;;;5010035;28;100381;-75
2022/03/25 11:50:40;;;;;;;57.58;38.47;;;;;;;;;;5006059;28;101405;-75
2022/03/25 11:53:10;;;;;;;64.78;39.03;;;;;;;;;;5005545;28;99640;-75
2022/03/25 11:55:51;;;;;;;61.08;40.15;;;;;;;;;;5005140;28;98890;-74
2022/03/25 11:58:18;;;;;;;55.72;38.70;;;;;;;;;;5000307;28;99147;-74
2022/03/25 12:01:06;;;;;;;55.70;40.75;;;;;;;;;;5006468;28;100397;-74
2022/03/25 12:03:41;;;;;;;60.58;38.38;;;;;;;;;;5006349;28;98559;-74
2022/03/25 12:06:08;;;;;;;52.85;39.70;;;;;;;;;;5007028;28;100010;-74
2022/03/25 12:08:39;;;;;;;58.65;40.92;;;;;;;;;;5008631;28;100220;-73
2022/03/25 12:11:07;;;;;;;49.67;32.92;;;;;;;;;;5017828;28;101032;-73
2022/03/25 12:13:54;;;;;;;54.47;39.03;;;;;;;;;;5004383;28;100392;-75
2022/03/25 12:16:39;;;;;;;55.78;38.85;;;;;;;;;;5000802;28;98618;-74
2022/03/25 12:19:26;;;;;;;52.15;35.65;;;;;;;;;;5007582;28;99219;-74
2022/03/25 12:21:53;;;;;;;66.28;40.03;;;;;;;;;;5003889;28;101952;-74
2022/03/25 12:24:20;;;;;;;58.35;39.30;;;;;;;;;;5004952;28;99112;-74
2022/03/25 12:26:53;;;;;;;53.58;38.15;;;;;;;;;;5006536;28;99750;-74
2022/03/25 12:29:27;;;;;;;58.83;42.40;;;;;;;;;;4996859;28;100327;-74
2022/03/25 12:32:02;;;;;;;58.90;42.38;;;;;;;;;;5006682;28;97902;-74
2022/03/25 12:34:48;;;;;;;59.65;40.63;;;;;;;;;;4988663;28;98594;-74
2022/03/25 12:37:27;;;;;;;62.05;40.97;;;;;;;;;;4993616;28;98564;-74
2022/03/25 12:39:53;;;;;;;63.22;42.28;;;;;;;;;;4995463;28;99666;-74
2022/03/25 12:42:20;;;;;;;56.95;40.90;;;;;;;;;;5004349;28;100182;-74
2022/03/25 12:44:53;;;;;;;57.53;39.58;;;;;;;;;;5007761;28;98937;-74
2022/03/25 12:47:28;;;;;;;55.95;36.13;;;;;;;;;;5006114;28;100066;-74
2022/03/25 12:49:58;;;;;;;49.13;31.58;;;;;;;;;;5006697;27;99945;-74
2022/03/25 12:52:25;;;;;;;55.97;35.83;;;;;;;;;;5006425;28;98531;-74
2022/03/25 12:54:52;;;;;;;56.70;37.28;;;;;;;;;;5007764;28;100046;-74
2022/03/25 12:57:31;;;;;;;51.45;35.50;;;;;;;;;;5008866;28;99073;-74
2022/03/25 12:59:57;;;;;;;56.38;37.25;;;;;;;;;;4999458;28;99226;-74
2022/03/25 13:02:37;;;;;;;51.05;37.15;;;;;;;;;;5005309;28;100294;-74
2022/03/25 13:05:11;;;;;;;61.95;39.15;;;;;;;;;;5004500;28;100191;-74
2022/03/25 13:07:39;;;;;;;49.58;35.97;;;;;;;;;;5006356;28;100849;-74
2022/03/25 13:10:06;;;;;;;48.90;35.40;;;;;;;;;;5004082;28;100336;-75
2022/03/25 13:12:33;;;;;;;53.65;33.95;;;;;;;;;;5002047;28;99000;-75
2022/03/25 13:15:00;;;;;;;54.97;36.60;;;;;;;;;;5012454;28;100018;-75
2022/03/25 13:17:32;;;;;;;48.40;35.42;;;;;;;;;;5005981;28;100048;-77
2022/03/25 13:19:59;;;;;;;54.33;35.25;;;;;;;;;;5009504;28;98630;-78
2022/03/25 13:22:25;;;;;;;45.25;29.60;;;;;;;;;;5010927;27;99245;-75
2022/03/25 13:24:53;;;;;;;52.78;33.53;;;;;;;;;;5007785;28;98624;-77
2022/03/25 13:27:19;;;;;;;52.92;35.58;;;;;;;;;;5009045;28;99959;-76
2022/03/25 13:29:46;;;;;;;48.75;32.40;;;;;;;;;;5006143;28;100947;-77
2022/03/25 13:32:27;;;;;;;47.17;33.45;;;;;;;;;;5007873;28;100259;-75
2022/03/25 13:35:07;;;;;;;59.85;33.63;;;;;;;;;;5013012;28;100004;-75
2022/03/25 13:37:33;;;;;;;46.72;33.00;;;;;;;;;;5004612;27;99470;-75
2022/03/25 13:39:59;;;;;;;47.28;31.48;;;;;;;;;;5010603;28;98887;-76
2022/03/25 13:42:32;;;;;;;51.05;35.03;;;;;;;;;;5008087;28;100352;-75
2022/03/25 13:45:09;;;;;;;40.67;28.27;;;;;;;;;;5012207;28;99721;-75
2022/03/25 13:47:36;;;;;;;42.92;30.67;;;;;;;;;;5028396;28;100234;-75
2022/03/25 13:50:12;;;;;;;52.65;33.30;;;;;;;;;;4998449;28;100756;-75
2022/03/25 13:52:38;;;;;;;53.25;33.10;;;;;;;;;;5001937;28;98702;-75
2022/03/25 13:55:16;;;;;;;55.22;32.55;;;;;;;;;;5005261;28;100804;-75
2022/03/25 13:57:53;;;;;;;43.75;30.90;;;;;;;;;;5010579;28;100500;-76
2022/03/25 14:00:27;;;;;;;45.30;31.63;;;;;;;;;;5007395;28;98998;-75
2022/03/25 14:02:54;;;;;;;36.40;25.95;;;;;;;;;;5012544;28;100236;-76
2022/03/25 14:05:25;;;;;;;49.75;31.52;;;;;;;;;;5008110;28;99279;-76
2022/03/25 14:07:53;;;;;;;52.03;31.98;;;;;;;;;;5005595;28;99522;-76
2022/03/25 14:10:19;;;;;;;43.53;25.80;;;;;;;;;;5001857;28;100144;-77
2022/03/25 14:12:54;;;;;;;51.03;29.17;;;;;;;;;;5002470;28;97880;-74
2022/03/25 14:15:24;;;;;;;34.70;28.23;;;;;;;;;;5008798;28;99239;-74
2022/03/25 14:17:55;;;;;;;40.88;26.33;;;;;;;;;;5006040;28;100545;-73